Time;durP1;ratioP1;P1;durP2;ratioP2;P2;SDS_P1;SDS_P2;PMS_P1;PMS_P2;Temp;Humidity;BMP_temperature;BMP_pressure;BME280_temperature;BME280_humidity;BME280_pressure;Samples;Min_cycle;Max_cycle;Signal;HPM_P1;HPM_P2
2023/04/03 00:01:00;;;;;;;;;26.25;21.25;;;;;8.52;69.40;101912.13;4845395;29;47976;-82
2023/04/03 00:03:26;;;;;;;;;28.50;25.75;;;;;8.57;69.40;101920.63;4858268;29;45879;-80
2023/04/03 00:05:51;;;;;;;;;34.75;23.00;;;;;8.50;69.60;101898.28;4858573;29;45888;-79
2023/04/03 00:08:17;;;;;;;;;33.25;27.25;;;;;8.51;69.32;101908.66;4858795;29;45989;-81
2023/04/03 00:10:42;;;;;;;;;28.00;26.00;;;;;8.57;69.58;101911.03;4872360;28;46802;-81
2023/04/03 00:13:09;;;;;;;;;26.25;22.25;;;;;8.46;69.15;101902.78;4933907;28;45633;-81
2023/04/03 00:15:35;;;;;;;;;24.50;20.75;;;;;8.39;69.23;101885.66;4934134;28;46218;-80
2023/04/03 00:18:01;;;;;;;;;24.00;22.75;;;;;8.16;69.41;101846.56;4978214;28;45758;-81
2023/04/03 00:21:02;;;;;;;;;29.75;21.75;;;;;8.49;69.38;101905.25;5061214;27;45813;-82
2023/04/03 00:23:27;;;;;;;;;28.25;24.75;;;;;8.18;69.11;101858.66;5052076;28;46765;-80
2023/04/03 00:25:53;;;;;;;;;24.50;21.25;;;;;8.43;69.45;101918.56;5055320;28;45718;-82
2023/04/03 00:28:19;;;;;;;;;27.75;22.00;;;;;8.19;69.14;101862.97;5073662;27;45578;-81
2023/04/03 00:30:44;;;;;;;;;22.50;21.00;;;;;8.39;68.85;101904.78;5075364;28;46224;-82
2023/04/03 00:33:42;;;;;;;;;26.25;24.75;;;;;8.49;69.29;101922.69;5074331;28;45954;-82
2023/04/03 00:36:09;;;;;;;;;26.50;23.75;;;;;8.50;69.00;101908.72;5075217;27;45859;-80
2023/04/03 00:38:35;;;;;;;;;22.75;22.25;;;;;8.49;69.07;101915.69;5075571;28;45724;-82
2023/04/03 00:44:49;;;;;;;;;27.25;24.00;;;;;8.52;69.14;101918.19;5013006;28;45896;-85
2023/04/03 00:47:20;;;;;;;;;29.50;27.00;;;;;8.54;69.03;101929.41;4942865;28;45630;-80
2023/04/03 00:49:46;;;;;;;;;31.00;25.00;;;;;8.54;68.75;101916.34;5012121;28;46045;-81
2023/04/03 00:52:19;;;;;;;;;27.50;24.50;;;;;8.54;68.81;101912.88;5011355;28;47195;-83
2023/04/03 00:54:47;;;;;;;;;28.00;23.25;;;;;8.52;68.64;101918.19;5011403;28;45717;-80
2023/04/03 00:57:16;;;;;;;;;29.50;20.75;;;;;8.42;68.56;101911.66;5011901;28;45699;-79
2023/04/03 00:59:52;;;;;;;;;22.75;19.00;;;;;8.32;68.35;101881.59;4994491;28;45667;-81
2023/04/03 01:02:18;;;;;;;;;22.00;20.75;;;;;8.07;68.34;101849.56;5011273;28;48061;-82
2023/04/03 01:04:44;;;;;;;;;28.25;23.25;;;;;8.45;68.65;101908.06;5011669;28;46304;-81
2023/04/03 01:07:23;;;;;;;;;31.50;26.25;;;;;8.46;68.55;101907.16;5011226;28;45831;-82
2023/04/03 01:09:53;;;;;;;;;25.00;23.25;;;;;8.45;68.63;101903.69;5011855;28;46043;-82
2023/04/03 01:12:34;;;;;;;;;24.00;21.50;;;;;8.36;68.70;101885.81;4995054;28;47661;-83
2023/04/03 01:15:12;;;;;;;;;30.75;26.50;;;;;8.42;68.64;101890.78;5011733;28;46133;-82
2023/04/03 01:17:39;;;;;;;;;27.75;24.00;;;;;8.42;68.91;101893.38;5011597;28;45819;-81
2023/04/03 01:20:11;;;;;;;;;30.25;25.25;;;;;8.47;68.78;101901.03;5019734;28;45738;-80
2023/04/03 01:25:42;;;;;;;;;29.25;22.75;;;;;8.49;68.83;101901.78;5085677;27;46121;-80
2023/04/03 01:31:52;;;;;;;;;22.50;17.75;;;;;8.47;68.72;101894.03;5094388;27;45590;-82
2023/04/03 01:34:19;;;;;;;;;25.75;21.25;;;;;8.46;68.76;101892.34;5094569;27;46717;-80
2023/04/03 01:36:44;;;;;;;;;26.50;21.00;;;;;8.48;68.72;101887.03;5094501;27;47080;-83
2023/04/03 01:39:12;;;;;;;;;26.00;22.00;;;;;8.47;68.66;101890.56;5094370;27;45606;-81
2023/04/03 01:41:37;;;;;;;;;23.50;20.75;;;;;8.23;68.67;101835.81;5094939;27;46012;-81
2023/04/03 01:44:03;;;;;;;;;25.50;22.50;;;;;8.19;68.41;101838.63;5093154;27;46518;-80
2023/04/03 01:46:29;;;;;;;;;21.75;19.75;;;;;8.35;68.53;101865.81;5094720;27;45917;-84
2023/04/03 01:48:55;;;;;;;;;27.75;24.75;;;;;8.28;68.58;101854.75;5093650;27;45624;-82
2023/04/03 01:51:20;;;;;;;;;25.50;21.00;;;;;8.17;68.65;101841.28;5094638;27;45742;-81
2023/04/03 01:53:46;;;;;;;;;27.25;22.00;;;;;8.30;68.97;101865.16;5093379;27;46275;-81
2023/04/03 01:56:11;;;;;;;;;30.50;25.50;;;;;8.13;68.81;101838.88;5094489;27;46009;-80
2023/04/03 01:58:37;;;;;;;;;21.00;18.75;;;;;8.17;68.99;101838.66;5093655;27;45847;-79
2023/04/03 02:01:02;;;;;;;;;39.75;26.75;;;;;8.41;69.14;101886.47;5093995;27;45725;-81
2023/04/03 02:03:28;;;;;;;;;33.25;27.75;;;;;8.18;69.22;101842.13;5093392;27;47268;-81
2023/04/03 02:05:53;;;;;;;;;31.25;24.00;;;;;8.18;69.26;101847.34;5093891;27;45983;-83
2023/04/03 02:08:19;;;;;;;;;33.25;27.00;;;;;8.39;69.36;101880.44;5096272;27;45589;-82
2023/04/03 02:10:46;;;;;;;;;26.75;23.00;;;;;8.15;69.45;101842.28;5094980;27;45565;-81
2023/04/03 02:13:47;;;;;;;;;27.00;23.75;;;;;8.39;69.26;101888.28;5093789;27;47491;-81
2023/04/03 02:23:17;;;;;;;;;26.25;22.25;;;;;8.14;69.45;101854.47;4894501;29;45725;-81
2023/04/03 02:29:43;;;;;;;;;23.25;21.00;;;;;8.27;69.27;101886.13;4894871;29;46221;-81
2023/04/03 02:32:08;;;;;;;;;21.00;17.75;;;;;8.32;69.08;101894.66;4896182;29;45648;-82
2023/04/03 02:34:34;;;;;;;;;27.50;22.50;;;;;8.31;68.76;101882.53;4896004;29;45796;-79
2023/04/03 02:36:59;;;;;;;;;27.50;21.00;;;;;8.31;68.70;101892.97;4895133;29;46544;-81
2023/04/03 02:42:46;;;;;;;;;25.75;21.50;;;;;8.15;68.83;101876.22;4894950;29;45745;-79
2023/04/03 02:45:12;;;;;;;;;25.75;23.25;;;;;8.26;68.54;101893.09;4895048;29;45646;-77
2023/04/03 02:47:37;;;;;;;;;28.00;24.25;;;;;8.27;68.52;101899.19;4894676;29;47513;-77
2023/04/03 02:50:03;;;;;;;;;29.50;26.50;;;;;8.18;68.66;101886.50;4894463;29;47166;-78
2023/04/03 02:52:28;;;;;;;;;22.25;18.50;;;;;8.22;68.31;101894.16;4903609;28;45560;-79
2023/04/03 02:58:31;;;;;;;;;24.00;20.25;;;;;8.04;68.68;101871.44;4990795;28;45602;-77
2023/04/03 03:12:12;;;;;;;;;20.75;20.75;;;;;8.13;68.96;101888.47;4823129;29;46049;-79
2023/04/03 03:14:37;;;;;;;;;24.25;18.25;;;;;8.14;69.01;101882.34;4823292;29;46246;-78
2023/04/03 03:17:03;;;;;;;;;19.00;17.75;;;;;8.10;68.95;101878.97;4823456;29;45726;-77
2023/04/03 03:19:28;;;;;;;;;21.75;18.00;;;;;8.15;69.03;101884.03;4823271;29;45650;-78
2023/04/03 03:21:53;;;;;;;;;25.00;20.00;;;;;8.18;68.85;101878.69;4822698;29;46523;-80
2023/04/03 03:27:41;;;;;;;;;23.75;15.75;;;;;8.20;68.78;101872.50;4824264;29;45964;-79
2023/04/03 03:30:07;;;;;;;;;22.50;19.25;;;;;8.19;68.61;101885.59;4841855;29;45772;-79
2023/04/03 03:32:32;;;;;;;;;18.25;16.50;;;;;8.21;68.70;101888.97;4841392;29;46549;-80
2023/04/03 03:34:58;;;;;;;;;22.75;17.50;;;;;8.04;68.64;101858.38;4841177;29;46584;-80
2023/04/03 03:37:43;;;;;;;;;22.25;17.75;;;;;8.20;68.21;101893.38;4841329;29;45853;-78
2023/04/03 03:44:42;;;;;;;;;22.25;18.75;;;;;7.95;68.35;101840.47;4859672;28;46026;-80
2023/04/03 03:50:34;;;;;;;;;17.75;15.50;;;;;7.80;68.17;101822.81;4993584;28;45693;-78
2023/04/03 03:53:43;;;;;;;;;17.00;14.00;;;;;7.81;67.74;101811.47;4994345;28;45799;-80
2023/04/03 03:59:46;;;;;;;;;19.50;15.25;;;;;7.75;67.70;101816.94;4915709;28;46122;-77
2023/04/03 04:02:12;;;;;;;;;18.25;15.75;;;;;7.90;67.57;101842.41;4915946;28;45934;-76
2023/04/03 04:04:37;;;;;;;;;18.25;18.00;;;;;8.10;67.30;101881.59;4916578;28;45495;-81
2023/04/03 04:07:07;;;;;;;;;18.00;14.25;;;;;7.92;67.50;101854.50;4916527;28;47189;-81
2023/04/03 04:09:32;;;;;;;;;18.50;15.00;;;;;8.07;67.61;101876.50;4917534;28;46143;-77
2023/04/03 04:11:58;;;;;;;;;17.50;14.00;;;;;7.90;67.13;101860.66;4917592;28;45910;-78
2023/04/03 04:14:50;;;;;;;;;20.75;16.50;;;;;8.04;67.37;101884.47;4919502;28;45885;-79
2023/04/03 04:17:15;;;;;;;;;15.25;11.25;;;;;7.92;66.97;101866.69;4918201;28;45672;-80
2023/04/03 04:19:40;;;;;;;;;20.00;16.75;;;;;7.77;66.71;101846.44;4915894;28;45720;-81
2023/04/03 04:22:08;;;;;;;;;18.00;15.00;;;;;7.68;66.40;101826.75;4915931;28;45876;-82
2023/04/03 04:24:34;;;;;;;;;16.75;13.75;;;;;7.48;66.57;101793.66;4915867;28;45680;-78
2023/04/03 04:30:20;;;;;;;;;17.25;15.25;;;;;7.90;66.71;101871.09;4962873;28;46677;-80
2023/04/03 04:32:46;;;;;;;;;18.75;14.25;;;;;7.92;66.52;101875.38;5022876;27;45486;-83
2023/04/03 04:35:12;;;;;;;;;15.75;13.25;;;;;7.92;66.23;101877.97;5094638;27;45885;-78
2023/04/03 04:37:37;;;;;;;;;16.00;14.00;;;;;7.85;66.12;101860.00;5095741;27;47175;-80
2023/04/03 04:46:31;;;;;;;;;13.50;13.00;;;;;7.68;65.67;101841.56;4915127;28;45770;-78
2023/04/03 04:48:57;;;;;;;;;15.25;12.00;;;;;7.88;65.85;101870.34;4915512;28;46411;-79
2023/04/03 04:51:22;;;;;;;;;20.25;17.75;;;;;7.88;65.49;101878.97;4915642;28;45771;-80
2023/04/03 04:53:47;;;;;;;;;18.25;17.00;;;;;7.89;65.18;101887.66;4899333;28;45691;-78
2023/04/03 04:56:13;;;;;;;;;18.50;17.25;;;;;7.87;65.35;101879.06;4915830;28;45763;-76
2023/04/03 04:58:38;;;;;;;;;16.25;15.00;;;;;7.87;65.05;101887.75;4915100;28;46810;-76
2023/04/03 05:01:06;;;;;;;;;16.75;13.50;;;;;7.87;65.18;101879.06;4915158;28;45780;-76
2023/04/03 05:03:32;;;;;;;;;17.00;13.50;;;;;7.78;65.50;101866.34;4915385;28;45646;-79
2023/04/03 05:05:58;;;;;;;;;17.00;14.00;;;;;7.88;64.86;101889.41;4915137;28;46003;-79
2023/04/03 05:08:24;;;;;;;;;11.25;10.00;;;;;7.77;64.67;101872.50;4916035;28;45766;-83
2023/04/03 05:10:49;;;;;;;;;14.00;13.25;;;;;7.88;64.69;101889.41;4915577;28;46365;-76
2023/04/03 05:13:15;;;;;;;;;18.25;14.00;;;;;7.78;64.47;101872.44;4915075;28;46266;-78
2023/04/03 05:15:40;;;;;;;;;17.75;14.00;;;;;7.75;64.20;101862.13;4913983;28;46086;-77
2023/04/03 05:18:06;;;;;;;;;19.25;17.25;;;;;7.86;63.98;101888.66;4914464;28;46409;-79
2023/04/03 05:20:33;;;;;;;;;18.75;12.75;;;;;7.80;63.94;101880.22;4975339;28;46238;-78
2023/04/03 05:22:58;;;;;;;;;19.50;16.00;;;;;7.80;63.66;101877.59;5034844;27;45684;-79
2023/04/03 05:25:24;;;;;;;;;17.25;14.00;;;;;7.82;63.64;101892.28;5095519;27;45683;-79
2023/04/03 05:27:50;;;;;;;;;19.00;17.00;;;;;7.77;63.82;101881.19;5095269;27;47350;-82
2023/04/03 05:30:16;;;;;;;;;17.50;14.50;;;;;7.78;63.49;101882.88;5095189;27;45985;-79
2023/04/03 05:32:42;;;;;;;;;17.50;14.75;;;;;7.83;63.57;101900.94;5095105;27;45767;-81
2023/04/03 05:35:08;;;;;;;;;19.00;14.25;;;;;7.82;63.62;101888.84;5096056;27;45605;-80
2023/04/03 05:37:34;;;;;;;;;17.75;16.25;;;;;7.85;63.82;101889.56;5094637;27;46471;-79
2023/04/03 05:39:59;;;;;;;;;20.50;16.75;;;;;7.88;63.79;101891.22;5094523;27;47101;-75
2023/04/03 05:45:49;;;;;;;;;20.00;17.00;;;;;7.92;63.40;101887.56;5094926;27;45553;-74
2023/04/03 05:48:15;;;;;;;;;17.75;15.75;;;;;7.89;63.54;101887.66;5092969;27;48648;-74
2023/04/03 05:50:42;;;;;;;;;17.50;16.50;;;;;7.84;63.31;101874.81;5094469;27;46098;-79
2023/04/03 05:53:17;;;;;;;;;21.75;20.75;;;;;7.97;63.06;101903.88;5076011;27;45809;-78
2023/04/03 05:55:42;;;;;;;;;19.75;18.00;;;;;7.98;62.58;101900.38;5093324;27;45547;-77
2023/04/03 05:58:08;;;;;;;;;18.75;17.25;;;;;7.97;62.25;101896.06;5094290;27;45668;-76
2023/04/03 06:00:34;;;;;;;;;15.25;15.25;;;;;7.83;62.19;101885.28;5094286;27;45628;-73
2023/04/03 06:02:59;;;;;;;;;19.50;15.00;;;;;7.86;62.48;101893.00;5075291;27;45717;-75
2023/04/03 06:05:25;;;;;;;;;13.50;10.25;;;;;7.83;62.61;101883.53;5094134;27;45886;-73
2023/04/03 06:07:50;;;;;;;;;18.50;17.50;;;;;7.62;62.08;101858.28;5092640;27;47434;-76
2023/04/03 06:10:16;;;;;;;;;20.25;14.75;;;;;7.78;61.98;101882.88;5075633;27;47026;-72
2023/04/03 06:16:04;;;;;;;;;24.50;18.00;;;;;7.72;61.97;101875.28;5095268;27;45514;-77
2023/04/03 06:18:29;;;;;;;;;18.75;15.75;;;;;7.90;61.88;101905.03;5093717;27;48561;-77
2023/04/03 06:20:55;;;;;;;;;21.75;18.75;;;;;7.90;61.58;101905.03;5095066;27;46296;-75
2023/04/03 06:23:21;;;;;;;;;21.25;17.25;;;;;7.87;61.90;101900.78;5094880;27;45643;-76
2023/04/03 06:25:49;;;;;;;;;21.75;17.75;;;;;7.79;61.60;101889.78;5094974;27;45767;-77
2023/04/03 06:31:36;;;;;;;;;18.25;15.00;;;;;7.85;61.42;101901.75;5091728;27;46240;-76
2023/04/03 06:34:02;;;;;;;;;22.25;16.50;;;;;7.84;61.23;101913.94;5094011;27;45597;-77
2023/04/03 06:36:28;;;;;;;;;20.50;18.75;;;;;7.84;61.51;101918.31;5096607;27;45829;-77
2023/04/03 06:38:54;;;;;;;;;22.00;17.50;;;;;7.84;61.54;101913.09;5097866;27;46538;-76
2023/04/03 06:41:20;;;;;;;;;19.00;15.50;;;;;7.77;61.92;101899.47;5097484;27;46928;-75
2023/04/03 06:47:11;;;;;;;;;21.25;19.25;;;;;7.75;61.95;101882.16;5097748;27;45731;-75
2023/04/03 06:49:37;;;;;;;;;21.00;16.25;;;;;7.92;61.46;101913.66;5097533;27;46362;-75
2023/04/03 06:52:02;;;;;;;;;24.75;18.00;;;;;7.94;61.64;101906.59;5097263;27;45614;-76
2023/04/03 06:54:28;;;;;;;;;24.25;15.50;;;;;7.95;61.65;101905.69;5097327;27;45626;-76
2023/04/03 06:56:53;;;;;;;;;22.00;20.50;;;;;7.99;61.99;101907.25;5097726;27;45571;-76
2023/04/03 06:59:19;;;;;;;;;20.50;16.00;;;;;7.97;61.76;101899.50;5097143;27;46317;-74
2023/04/03 07:01:45;;;;;;;;;17.25;14.25;;;;;8.01;61.51;101903.69;5097020;27;46285;-72
2023/04/03 07:04:15;;;;;;;;;24.50;20.50;;;;;8.09;61.68;101911.22;5097394;27;45691;-73
2023/04/03 07:06:42;;;;;;;;;26.00;22.00;;;;;8.05;61.41;101900.94;5097458;27;45668;-73
2023/04/03 07:09:11;;;;;;;;;22.00;17.25;;;;;8.10;61.34;101905.06;5097370;27;45654;-76
2023/04/03 07:11:37;;;;;;;;;20.25;19.00;;;;;8.17;61.40;101913.50;5078532;27;48142;-77
2023/04/03 07:17:25;;;;;;;;;18.25;14.75;;;;;8.22;61.00;101912.44;5097075;27;45730;-74
2023/04/03 07:19:51;;;;;;;;;20.50;18.00;;;;;8.10;61.11;101896.44;5097031;27;46468;-76
2023/04/03 07:22:17;;;;;;;;;15.00;13.75;;;;;8.04;60.97;101874.03;5096000;27;46494;-75
2023/04/03 07:24:42;;;;;;;;;19.75;18.00;;;;;8.19;61.12;101906.50;5096715;27;45516;-70
2023/04/03 07:27:08;;;;;;;;;10.50;9.25;;;;;8.25;61.06;101906.25;5112609;27;46031;-74
2023/04/03 07:29:35;;;;;;;;;18.50;14.25;;;;;8.32;60.80;101915.53;5097044;27;46174;-73
2023/04/03 07:32:01;;;;;;;;;19.75;15.75;;;;;8.33;60.74;101925.06;5096156;27;46170;-77
2023/04/03 07:34:26;;;;;;;;;17.00;14.25;;;;;8.34;60.35;101916.34;5096591;27;45877;-78
2023/04/03 07:36:52;;;;;;;;;17.25;15.75;;;;;8.30;60.68;101915.63;5096243;27;45600;-74
2023/04/03 07:39:18;;;;;;;;;18.25;15.75;;;;;8.21;60.60;101896.81;5095407;27;46346;-75
2023/04/03 07:41:43;;;;;;;;;20.75;18.00;;;;;8.31;60.99;101922.50;5096316;27;46309;-74
2023/04/03 07:47:31;;;;;;;;;17.25;16.00;;;;;8.30;60.91;101917.38;5095178;27;45493;-76
2023/04/03 07:49:57;;;;;;;;;15.50;13.25;;;;;8.31;60.88;101909.47;5095990;27;47348;-76
2023/04/03 07:52:24;;;;;;;;;19.00;16.50;;;;;8.40;60.51;101927.38;5095843;27;46027;-73
2023/04/03 07:54:49;;;;;;;;;14.25;13.75;;;;;8.33;60.58;101912.88;5096414;27;45847;-75
2023/04/03 07:57:15;;;;;;;;;18.00;14.50;;;;;8.39;60.80;101919.59;5096169;27;45546;-74
2023/04/03 07:59:42;;;;;;;;;17.00;13.50;;;;;8.44;60.55;101922.88;5095850;27;46343;-74
2023/04/03 08:02:09;;;;;;;;;16.25;15.00;;;;;8.49;60.67;101930.53;5095855;27;46529;-78
2023/04/03 08:04:35;;;;;;;;;18.50;14.00;;;;;8.51;60.49;101928.69;5111861;27;45894;-76
2023/04/03 08:07:00;;;;;;;;;15.00;14.50;;;;;8.51;60.31;101920.88;5096243;27;45537;-73
2023/04/03 08:09:26;;;;;;;;;14.50;13.75;;;;;8.56;60.12;101929.34;5095961;27;47376;-72
2023/04/03 08:11:53;;;;;;;;;18.25;15.00;;;;;8.56;60.17;101927.59;5096320;27;45580;-72
2023/04/03 08:17:40;;;;;;;;;12.50;11.50;;;;;8.64;60.17;101930.72;5096028;27;45481;-71
2023/04/03 08:20:07;;;;;;;;;12.75;11.00;;;;;8.62;60.29;101924.75;5094384;27;47538;-76
2023/04/03 08:22:35;;;;;;;;;13.25;11.00;;;;;8.72;60.62;101930.41;5095458;27;46874;-72
2023/04/03 08:25:01;;;;;;;;;14.25;13.75;;;;;8.77;60.60;101925.84;5096044;27;45807;-74
2023/04/03 08:27:28;;;;;;;;;15.25;12.50;;;;;8.80;60.04;101915.25;5094446;27;45818;-71
2023/04/03 08:33:28;;;;;;;;;10.25;9.00;;;;;8.99;60.16;101925.78;5094182;27;45780;-77
2023/04/03 08:35:54;;;;;;;;;7.00;7.00;;;;;8.89;59.45;101895.72;5095919;27;45623;-73
2023/04/03 08:38:19;;;;;;;;;5.25;5.00;;;;;9.06;58.42;101911.53;5095808;27;45611;-74
2023/04/03 08:40:45;;;;;;;;;7.50;7.00;;;;;8.98;58.53;101903.16;5095714;27;46207;-78
2023/04/03 08:43:30;;;;;;;;;10.00;9.00;;;;;9.11;58.78;101922.63;5095158;27;46297;-75
2023/04/03 08:46:00;;;;;;;;;7.00;6.25;;;;;9.11;58.58;101912.19;5095732;27;45481;-79
2023/04/03 08:48:35;;;;;;;;;10.25;7.00;;;;;9.15;57.59;101918.97;5095945;27;45595;-76
2023/04/03 08:51:05;;;;;;;;;6.50;6.50;;;;;9.13;58.06;101919.03;5095470;27;46762;-75
2023/04/03 08:53:35;;;;;;;;;10.75;9.00;;;;;9.13;58.08;101920.78;5095494;27;46047;-77
2023/04/03 08:56:08;;;;;;;;;11.00;9.00;;;;;9.21;58.15;101937.84;5095778;27;45670;-75
2023/04/03 08:58:52;;;;;;;;;10.25;8.00;;;;;9.19;58.16;101916.13;5094782;27;45650;-77
2023/04/03 09:01:36;;;;;;;;;9.00;7.25;;;;;9.23;57.62;101919.50;5095339;27;45546;-76
2023/04/03 09:04:08;;;;;;;;;6.00;6.00;;;;;9.22;57.83;101915.19;5095112;27;46149;-77
2023/04/03 09:06:34;;;;;;;;;6.00;6.00;;;;;9.29;57.79;101924.41;5095767;27;45651;-74
2023/04/03 09:09:05;;;;;;;;;6.75;6.75;;;;;9.31;57.19;101900.81;5095933;27;45713;-75
2023/04/03 09:12:09;;;;;;;;;9.75;7.75;;;;;9.38;57.67;101910.94;5095822;27;46057;-74
2023/04/03 09:14:44;;;;;;;;;6.50;6.00;;;;;9.45;57.82;101917.59;5096297;27;47112;-75
2023/04/03 09:17:12;;;;;;;;;7.00;7.00;;;;;9.51;57.43;101912.06;5095849;27;45912;-73
2023/04/03 09:20:19;;;;;;;;;6.00;5.00;;;;;9.57;56.50;101929.25;5095050;27;45489;-75
2023/04/03 09:22:45;;;;;;;;;6.50;6.00;;;;;9.58;56.86;101917.88;5094690;27;45537;-76
2023/04/03 09:25:35;;;;;;;;;7.00;7.00;;;;;9.56;56.79;101920.56;5094844;27;46322;-75
2023/04/03 09:28:02;;;;;;;;;7.25;7.25;;;;;9.57;56.59;101929.25;5095053;27;45540;-74
2023/04/03 09:30:28;;;;;;;;;7.00;7.00;;;;;9.57;56.40;101921.41;5094986;27;45740;-72
2023/04/03 09:32:56;;;;;;;;;10.00;6.50;;;;;9.47;56.33;101912.28;5094620;27;45620;-77
2023/04/03 09:35:25;;;;;;;;;5.25;5.00;;;;;9.49;56.46;101926.16;5094974;27;46083;-72
2023/04/03 09:37:54;;;;;;;;;8.00;6.75;;;;;9.38;56.22;101913.56;5094942;27;45831;-75
2023/04/03 09:40:25;;;;;;;;;5.00;5.00;;;;;9.39;56.75;101923.13;5094664;27;45506;-73
2023/04/03 09:42:52;;;;;;;;;6.75;6.00;;;;;9.34;56.72;101925.06;5094441;27;47298;-75
2023/04/03 09:45:27;;;;;;;;;7.75;6.50;;;;;9.37;56.23;101935.41;5094908;27;45910;-70
2023/04/03 09:48:14;;;;;;;;;5.50;5.25;;;;;9.38;56.55;101931.03;5096268;27;45882;-73
2023/04/03 09:51:01;;;;;;;;;6.00;6.00;;;;;9.36;57.02;101935.47;5095459;27;45540;-72
2023/04/03 09:53:32;;;;;;;;;5.50;5.50;;;;;9.36;56.71;101922.38;5095082;27;46559;-75
2023/04/03 09:55:59;;;;;;;;;7.00;7.00;;;;;9.28;56.32;101915.72;5094763;27;46004;-74
2023/04/03 10:01:30;;;;;;;;;8.00;6.75;;;;;9.27;56.71;101916.66;5094341;27;45656;-78
2023/04/03 10:04:17;;;;;;;;;10.75;9.75;;;;;9.25;56.63;101922.88;5094159;27;46386;-75
2023/04/03 10:06:48;;;;;;;;;6.50;5.50;;;;;9.21;56.45;101914.31;5094415;27;46599;-73
2023/04/03 10:09:19;;;;;;;;;6.75;6.00;;;;;9.12;56.30;101900.81;5092796;27;45764;-73
2023/04/03 10:12:06;;;;;;;;;1.75;1.00;;;;;9.18;56.42;101901.38;5093411;27;45678;-73
2023/04/03 10:18:18;;;;;;;;;8.25;6.50;;;;;9.13;56.54;101894.63;5094094;27;45648;-73
2023/04/03 10:20:49;;;;;;;;;7.75;7.00;;;;;9.18;55.74;101908.34;5093943;27;45944;-72
2023/04/03 10:23:27;;;;;;;;;7.00;7.00;;;;;9.16;55.88;101899.75;5092734;27;45704;-74
2023/04/03 10:25:58;;;;;;;;;9.00;7.00;;;;;9.14;55.34;101893.72;5094461;27;45731;-73
2023/04/03 10:28:35;;;;;;;;;7.25;6.00;;;;;9.14;56.18;101889.34;5093963;27;46021;-73
2023/04/03 10:34:30;;;;;;;;;7.00;6.00;;;;;9.20;55.69;101883.00;5092632;27;45621;-72
2023/04/03 10:37:25;;;;;;;;;7.00;7.00;;;;;9.22;55.23;101871.56;5094224;27;45859;-72
2023/04/03 10:39:54;;;;;;;;;7.00;5.25;;;;;9.24;55.56;101872.34;5094113;27;46077;-72
2023/04/03 10:42:25;;;;;;;;;9.00;6.50;;;;;9.25;55.23;101876.66;5093920;27;45600;-72
2023/04/03 10:48:31;;;;;;;;;6.00;5.00;;;;;9.32;55.14;101871.16;5093666;27;45605;-72
2023/04/03 10:51:32;;;;;;;;;6.25;5.25;;;;;9.35;55.31;101873.59;5092193;27;47420;-72
2023/04/03 10:54:12;;;;;;;;;7.00;6.75;;;;;9.40;55.36;101863.78;5030656;28;46056;-72
2023/04/03 10:57:02;;;;;;;;;5.25;5.00;;;;;9.44;55.09;101855.75;5031145;28;45689;-72
2023/04/03 10:59:41;;;;;;;;;8.25;7.00;;;;;9.46;55.18;101850.44;5031018;28;45673;-75
2023/04/03 11:02:28;;;;;;;;;7.00;6.00;;;;;9.52;55.04;101852.75;5030359;28;46276;-77
2023/04/03 11:05:05;;;;;;;;;6.00;6.00;;;;;9.57;54.17;101856.00;5030883;28;45917;-73
2023/04/03 11:07:40;;;;;;;;;10.25;8.25;;;;;9.55;54.70;101842.16;5030920;28;45931;-74
2023/04/03 11:10:21;;;;;;;;;5.75;5.00;;;;;9.61;53.96;101837.47;5030431;28;45748;-73
2023/04/03 11:12:56;;;;;;;;;7.00;6.00;;;;;9.63;53.71;101848.72;5030548;28;47155;-76
2023/04/03 11:15:24;;;;;;;;;8.75;6.25;;;;;9.68;53.29;101845.88;5030836;28;45671;-77
2023/04/03 11:17:53;;;;;;;;;5.75;5.75;;;;;9.68;53.69;101840.66;5030584;28;46026;-77
2023/04/03 11:20:32;;;;;;;;;6.50;6.00;;;;;9.72;54.04;101842.19;5030237;28;47087;-75
2023/04/03 11:23:05;;;;;;;;;7.75;7.00;;;;;9.76;54.05;101841.16;5032896;28;46178;-78
2023/04/03 11:25:33;;;;;;;;;8.25;6.50;;;;;9.81;53.53;101835.69;5033974;28;45853;-78
2023/04/03 11:28:02;;;;;;;;;10.00;7.25;;;;;9.83;53.47;101842.53;5033982;28;45805;-73
2023/04/03 11:30:46;;;;;;;;;7.25;7.00;;;;;9.88;53.47;101845.78;5090226;27;46355;-78
2023/04/03 11:33:28;;;;;;;;;7.50;7.25;;;;;9.90;53.42;101840.47;5096573;27;46146;-76
2023/04/03 11:35:58;;;;;;;;;8.00;7.00;;;;;9.92;53.77;101839.50;5097260;27;45809;-77
2023/04/03 11:38:34;;;;;;;;;7.00;7.00;;;;;9.89;52.69;101820.44;5096649;27;45810;-77
2023/04/03 11:41:01;;;;;;;;;6.00;6.00;;;;;9.97;53.39;101828.78;5096587;27;47282;-76
2023/04/03 11:43:30;;;;;;;;;7.00;6.00;;;;;10.04;53.41;101825.78;5096964;27;46152;-77
2023/04/03 11:46:05;;;;;;;;;6.00;5.75;;;;;10.14;52.94;101828.81;5096666;27;45509;-75
2023/04/03 11:48:31;;;;;;;;;4.25;3.25;;;;;10.19;52.34;101820.75;5097189;27;45827;-76
2023/04/03 11:51:12;;;;;;;;;7.00;6.00;;;;;10.22;52.01;101829.28;5096191;27;45670;-77
2023/04/03 11:53:40;;;;;;;;;5.50;5.00;;;;;10.24;52.64;101810.91;5096493;27;47006;-78
2023/04/03 11:56:32;;;;;;;;;6.50;6.00;;;;;10.27;52.20;101810.72;5096211;27;45659;-78
2023/04/03 11:59:21;;;;;;;;;3.75;2.75;;;;;10.33;51.76;101811.28;5093521;27;45476;-76
2023/04/03 12:01:52;;;;;;;;;6.00;4.25;;;;;10.35;51.35;101811.19;5096353;27;47324;-77
2023/04/03 12:04:20;;;;;;;;;5.75;5.50;;;;;10.33;51.84;101792.09;5097036;27;46126;-77
2023/04/03 12:06:46;;;;;;;;;6.50;5.00;;;;;10.44;51.62;101813.34;5096487;27;45736;-78
2023/04/03 12:09:34;;;;;;;;;6.50;5.50;;;;;10.45;51.88;101810.66;5096483;27;45809;-79
2023/04/03 12:12:20;;;;;;;;;4.25;4.25;;;;;10.51;52.52;101799.88;5096123;27;45586;-77
2023/04/03 12:14:46;;;;;;;;;7.25;6.00;;;;;10.52;52.07;101780.59;5096243;27;46553;-77
2023/04/03 12:17:23;;;;;;;;;6.00;6.00;;;;;10.67;51.60;101792.03;5096110;27;45655;-77
2023/04/03 12:19:48;;;;;;;;;6.50;6.00;;;;;10.71;51.38;101787.47;5095132;27;45874;-75
2023/04/03 12:22:20;;;;;;;;;6.00;4.50;;;;;10.78;51.42;101799.34;5095763;27;46284;-77
2023/04/03 12:24:49;;;;;;;;;5.50;4.50;;;;;10.81;51.17;101797.41;5096108;27;47175;-75
2023/04/03 12:27:23;;;;;;;;;6.75;5.50;;;;;10.86;51.43;101800.63;5096659;27;45935;-72
2023/04/03 12:30:11;;;;;;;;;6.50;6.00;;;;;10.89;50.80;101794.38;5094602;27;45793;-71
2023/04/03 12:32:39;;;;;;;;;3.75;3.75;;;;;10.92;50.71;101789.81;5095377;27;46009;-71
2023/04/03 12:35:09;;;;;;;;;3.00;3.00;;;;;10.94;50.93;101798.44;5094830;27;46080;-71
2023/04/03 12:38:02;;;;;;;;;4.00;4.00;;;;;10.96;50.64;101805.41;5095580;27;45626;-72
2023/04/03 12:40:42;;;;;;;;;2.75;2.75;;;;;10.96;50.71;101787.03;5096153;27;45513;-71
2023/04/03 12:43:17;;;;;;;;;3.75;3.75;;;;;10.99;50.36;101799.97;5095740;27;45626;-71
2023/04/03 12:49:18;;;;;;;;;3.75;3.00;;;;;11.01;50.93;101783.25;5095728;27;45669;-71
2023/04/03 12:51:46;;;;;;;;;3.75;3.75;;;;;11.04;50.30;101763.84;5095638;27;45674;-72
2023/04/03 12:54:31;;;;;;;;;3.00;3.00;;;;;11.11;50.31;101773.94;5095560;27;45698;-73
2023/04/03 12:57:17;;;;;;;;;4.00;3.50;;;;;11.21;49.87;101776.91;5094126;27;46901;-75
2023/04/03 12:59:45;;;;;;;;;3.00;3.00;;;;;11.19;49.30;101763.84;5095117;27;45911;-75
2023/04/03 13:05:33;;;;;;;;;6.00;3.25;;;;;11.26;50.19;101770.47;5095418;27;46071;-73
2023/04/03 13:08:04;;;;;;;;;2.75;2.75;;;;;11.28;49.47;101776.47;5095328;27;46019;-77
2023/04/03 13:10:31;;;;;;;;;5.50;4.00;;;;;11.28;49.58;101750.22;5095338;27;45577;-77
2023/04/03 13:13:07;;;;;;;;;6.00;5.50;;;;;11.31;49.44;101744.81;5095471;27;45637;-72
2023/04/03 13:15:48;;;;;;;;;4.00;4.00;;;;;11.33;49.08;101744.75;5095049;27;46560;-73
2023/04/03 13:18:27;;;;;;;;;3.00;3.00;;;;;11.41;50.01;101742.53;5094589;27;46584;-72
2023/04/03 13:20:57;;;;;;;;;3.00;3.00;;;;;11.45;48.82;101749.28;5094866;27;45548;-75
2023/04/03 13:23:23;;;;;;;;;3.00;3.00;;;;;11.47;49.74;101736.94;5095120;27;45815;-72
2023/04/03 13:25:49;;;;;;;;;4.50;3.00;;;;;11.54;49.90;101745.31;5093928;27;48499;-73
2023/04/03 13:28:22;;;;;;;;;5.00;3.75;;;;;11.57;49.84;101743.34;5094998;27;46178;-73